LTBJ/ADB METAR and TAF weather

Enter ICAO airport designator
Station Type Date Time Source
LTBJ METAR 2021/02/27 20:50 UTC NOAA

LTBJ 272050Z 00000KT CAVOK 07/06 Q1017 NOSIG


Station Type Date Time Source
LTBJ Decoded METAR 2021/02/27 20:50 UTC NOAA

Izmir / Adnan Menderes, Turkey (LTBJ) 38-16N 027-09E 120M
Feb 27, 2021 - 03:50 PM EST / 2021.02.27 2050 UTC
Wind: Calm:0
Visibility: greater than 7 mile(s):0
Temperature: 44 F (7 C)
Dew Point: 42 F (6 C)
Relative Humidity: 93%
Pressure (altimeter): 30.03 in. Hg (1017 hPa)
ob: LTBJ 272050Z 00000KT CAVOK 07/06 Q1017 NOSIG
cycle: 21

Station Type Date Time Source
LTBJ TAF 2021/02/27 18:03 UTC NOAA

TAF LTBJ 271640Z 2718/2818 36012KT CAVOK
BECMG 2718/2721 VRB02KT
BECMG 2803/2806 36012KT
BECMG 2809/2812 36020G30KT

Example: see airport list